Terminal Aerodrome Forecast
Issued by NWS

Home | Current Version | Previous Version | Text Only | Print | Product List | Glossary On
Versions: 1 2 3 4 5 6 7 8 9 10 11 12 13 14 15 16 17
000
FTUS43 KMQT 252324
TAFSAW
TAF
KSAW 252324Z 2600/2624 02009KT P6SM SKC
     FM260300 36005KT P6SM SKC
     FM261000 01006KT P6SM SCT022
     FM261300 01010G16KT P6SM BKN022
     FM262000 01012G18KT P6SM SCT026=

USA.gov is the U.S. government's official web portal to all federal, state and local government web resources and services.